Time;durP1;ratioP1;P1;durP2;ratioP2;P2;SDS_P1;SDS_P2;PMS_P1;PMS_P2;Temp;Humidity;BMP_temperature;BMP_pressure;BME280_temperature;BME280_humidity;BME280_pressure;Samples;Min_cycle;Max_cycle;Signal;HPM_P1;HPM_P2
2021/09/21 05:08:36;;;;;;;;;;;;;;;15.71;53.97;102597.31;5133319;27;1188570;-72
2021/09/21 05:11:01;;;;;;;;;;;;;;;15.83;54.59;102598.41;5173517;27;2064;-69
2021/09/21 05:13:26;;;;;;;;;;;;;;;15.91;55.14;102586.25;5170793;27;1180;-72
2021/09/21 05:15:51;;;;;;;;;;;;;;;15.91;58.17;102585.38;5161905;27;1325;-71
2021/09/21 05:18:16;;;;;;;;;;;;;;;15.88;59.80;102591.78;5161921;27;1494;-70
2021/09/21 05:20:41;;;;;;;;;;;;;;;15.89;58.96;102584.59;5161346;27;1701;-70
2021/09/21 05:23:07;;;;;;;;;;;;;;;15.88;58.45;102586.41;5164047;27;1602;-70
2021/09/21 05:25:32;;;;;;;;;;;;;;;15.90;58.30;102594.41;5161131;27;1768;-70
2021/09/21 05:27:57;;;;;;;;;;;;;;;15.90;58.25;102589.03;5155277;27;1978;-71
2021/09/21 05:30:22;;;;;;;;;;;;;;;15.90;58.24;102589.03;5162314;27;1511;-70
2021/09/21 05:32:47;;;;;;;;;;;;;;;15.89;58.84;102582.78;5162609;27;1590;-70
2021/09/21 05:35:12;;;;;;;;;;;;;;;15.90;58.87;102580.94;5161344;27;1660;-70
2021/09/21 05:37:37;;;;;;;;;;;;;;;15.90;58.28;102573.75;5170751;27;1642;-70
2021/09/21 05:40:02;;;;;;;;;;;;;;;15.90;58.80;102579.13;5166504;27;1600;-70
2021/09/21 05:42:27;;;;;;;;;;;;;;;15.91;58.30;102580.88;5160462;27;1652;-70
2021/09/21 05:44:52;;;;;;;;;;;;;;;15.92;58.20;102582.59;5173234;27;1056;-70
2021/09/21 05:47:17;;;;;;;;;;;;;;;15.91;58.16;102580.00;5173695;27;1952;-70
2021/09/21 05:49:43;;;;;;;;;;;;;;;15.93;58.48;102591.53;5147219;27;1812;-71
2021/09/21 05:52:08;;;;;;;;;;;;;;;15.92;58.48;102587.97;5160809;27;1658;-71
2021/09/21 05:54:33;;;;;;;;;;;;;;;15.93;58.57;102583.47;5157757;27;1609;-70
2021/09/21 05:56:58;;;;;;;;;;;;;;;15.93;57.99;102580.78;5163482;27;1432;-71
2021/09/21 05:59:23;;;;;;;;;;;;;;;15.93;57.76;102584.34;5163714;27;1381;-71
2021/09/21 06:01:48;;;;;;;;;;;;;;;15.94;58.64;102590.56;5172242;27;1933;-71
2021/09/21 06:04:13;;;;;;;;;;;;;;;15.99;58.00;102599.22;5173324;27;927;-71
2021/09/21 06:06:38;;;;;;;;;;;;;;;16.06;58.03;102602.41;5172856;27;1956;-71
2021/09/21 06:09:04;;;;;;;;;;;;;;;16.17;57.43;102608.88;5172997;27;1024;-72
2021/09/21 06:11:33;;;;;;;;;;;;;;;16.25;57.86;102609.28;5172362;27;1915;-71
2021/09/21 06:13:59;;;;;;;;;;;;;;;16.31;57.72;102616.09;5152066;27;1236;-71
2021/09/21 06:16:24;;;;;;;;;;;;;;;16.33;57.61;102616.88;5160465;27;1643;-71
2021/09/21 06:18:49;;;;;;;;;;;;;;;16.39;58.49;102615.63;5147213;27;1698;-69
2021/09/21 06:21:14;;;;;;;;;;;;;;;16.42;57.76;102624.38;5142049;27;1558;-70
2021/09/21 06:23:39;;;;;;;;;;;;;;;16.49;58.19;102630.25;5147094;27;1458;-69
2021/09/21 06:26:04;;;;;;;;;;;;;;;16.56;57.44;102629.78;5144833;27;1795;-73
2021/09/21 06:28:29;;;;;;;;;;;;;;;16.61;58.37;102619.59;5141269;27;1917;-70
2021/09/21 06:30:54;;;;;;;;;;;;;;;16.67;58.19;102623.75;5153281;27;1289;-72
2021/09/21 06:33:21;;;;;;;;;;;;;;;16.72;58.85;102629.72;5144710;27;1397;-69
2021/09/21 06:35:46;;;;;;;;;;;;;;;16.76;58.97;102633.97;5144815;27;1456;-67
2021/09/21 06:38:11;;;;;;;;;;;;;;;16.81;58.07;102644.47;5147217;27;1668;-71
2021/09/21 06:40:36;;;;;;;;;;;;;;;16.85;57.28;102649.53;5146948;27;1341;-69
2021/09/21 06:43:01;;;;;;;;;;;;;;;16.89;58.43;102644.81;5140393;27;1486;-67
2021/09/21 06:45:27;;;;;;;;;;;;;;;16.96;58.69;102651.56;5144498;27;1235;-66
2021/09/21 06:47:52;;;;;;;;;;;;;;;17.00;58.21;102651.28;5146195;27;1893;-66
2021/09/21 06:50:17;;;;;;;;;;;;;;;16.97;58.17;102656.88;5143969;27;2054;-66
2021/09/21 06:52:42;;;;;;;;;;;;;;;17.00;58.18;102656.69;5145213;27;1117;-66
2021/09/21 06:55:07;;;;;;;;;;;;;;;17.03;57.83;102658.28;5147841;27;1332;-70
2021/09/21 06:57:32;;;;;;;;;;;;;;;17.13;57.98;102655.88;5128075;27;1619;-69
2021/09/21 06:59:58;;;;;;;;;;;;;;;17.21;57.84;102653.56;5145439;27;1447;-70
2021/09/21 07:02:23;;;;;;;;;;;;;;;17.29;57.89;102651.25;5142352;27;1820;-70
2021/09/21 07:04:48;;;;;;;;;;;;;;;17.38;57.41;102664.09;5151442;27;1706;-66
2021/09/21 07:07:13;;;;;;;;;;;;;;;17.46;57.85;102669.88;5154163;27;1953;-67
2021/09/21 07:09:38;;;;;;;;;;;;;;;17.52;57.79;102669.50;5141148;27;1438;-67
2021/09/21 07:12:03;;;;;;;;;;;;;;;17.51;57.72;102675.84;5153959;27;1565;-67
2021/09/21 07:14:28;;;;;;;;;;;;;;;17.52;57.70;102680.28;5137943;27;1541;-68
2021/09/21 07:16:53;;;;;;;;;;;;;;;17.54;57.94;102681.03;5146422;27;1129;-69
2021/09/21 07:19:19;;;;;;;;;;;;;;;17.54;57.75;102683.75;5122393;27;1343;-69
2021/09/21 07:21:47;;;;;;;;;;;;;;;17.57;57.87;102678.13;5153306;27;1140;-68
2021/09/21 07:24:12;;;;;;;;;;;;;;;17.61;57.65;102695.84;5140807;27;1782;-68
2021/09/21 07:26:37;;;;;;;;;;;;;;;17.62;57.78;102696.69;5149128;27;1918;-66
2021/09/21 07:29:02;;;;;;;;;;;;;;;17.63;57.66;102702.00;5143801;27;1426;-69
2021/09/21 07:31:27;;;;;;;;;;;;;;;17.61;57.40;102703.94;5126857;27;1297;-65
2021/09/21 07:33:53;;;;;;;;;;;;;;;17.59;57.96;102705.00;5142782;27;1510;-68
2021/09/21 07:36:18;;;;;;;;;;;;;;;17.58;58.02;102714.03;5141689;27;1528;-67
2021/09/21 07:38:43;;;;;;;;;;;;;;;17.56;58.47;102716.81;5142939;27;1533;-66
2021/09/21 07:41:08;;;;;;;;;;;;;;;17.53;57.95;102713.50;5145152;27;1481;-66
2021/09/21 07:43:33;;;;;;;;;;;;;;;17.52;58.09;102718.03;5144039;27;1429;-68
2021/09/21 07:45:58;;;;;;;;;;;;;;;17.52;58.37;102720.72;5142928;27;1542;-66
2021/09/21 07:48:23;;;;;;;;;;;;;;;17.52;58.33;102726.09;5144144;27;1874;-71
2021/09/21 07:50:48;;;;;;;;;;;;;;;17.50;58.03;102721.78;5145210;27;1401;-68
2021/09/21 07:53:13;;;;;;;;;;;;;;;17.49;58.65;102731.69;5147235;27;1535;-70
2021/09/21 07:55:38;;;;;;;;;;;;;;;17.51;58.02;102726.19;5139225;27;1194;-63
2021/09/21 07:58:03;;;;;;;;;;;;;;;17.48;58.21;102726.38;5139243;27;1700;-68
2021/09/21 08:00:29;;;;;;;;;;;;;;;17.47;58.42;102722.84;5141122;27;1708;-68
2021/09/21 08:02:54;;;;;;;;;;;;;;;17.47;58.72;102730.91;5141147;22;2420;-65
2021/09/21 08:05:20;;;;;;;;;;;;;;;17.47;59.18;102725.53;5085010;28;1972;-65
2021/09/21 08:07:45;;;;;;;;;;;;;;;17.45;58.78;102718.50;5062821;28;1973;-66
2021/09/21 08:10:11;;;;;;;;;;;;;;;17.48;58.69;102729.09;5095103;28;973;-65
2021/09/21 08:12:36;;;;;;;;;;;;;;;17.51;58.73;102721.69;5084183;28;1898;-64
2021/09/21 08:15:01;;;;;;;;;;;;;;;17.58;58.93;102723.00;5074664;28;1088;-65
2021/09/21 08:17:28;;;;;;;;;;;;;;;17.71;58.88;102730.34;5052403;28;1610;-62
2021/09/21 08:19:53;;;;;;;;;;;;;;;17.84;58.71;102721.34;5058966;28;1536;-64
2021/09/21 08:22:18;;;;;;;;;;;;;;;17.89;58.83;102718.34;5091560;28;1918;-65
2021/09/21 08:24:43;;;;;;;;;;;;;;;17.93;58.28;102728.81;5074771;28;826;-62
2021/09/21 08:27:08;;;;;;;;;;;;;;;17.94;58.05;102724.28;5056424;28;1961;-65
2021/09/21 08:29:33;;;;;;;;;;;;;;;17.96;57.83;102735.84;5054504;28;2220;-64
2021/09/21 08:31:58;;;;;;;;;;;;;;;18.00;57.75;102737.38;5063922;28;1449;-65
2021/09/21 08:34:23;;;;;;;;;;;;;;;18.01;57.90;102739.13;5060960;28;1359;-64
2021/09/21 08:36:50;;;;;;;;;;;;;;;18.06;58.50;102734.28;5056858;28;1510;-64
2021/09/21 08:39:15;;;;;;;;;;;;;;;18.06;57.47;102746.91;5093629;28;854;-64
2021/09/21 08:41:40;;;;;;;;;;;;;;;18.06;57.63;102750.47;5092725;28;1580;-65
2021/09/21 08:44:06;;;;;;;;;;;;;;;18.06;58.12;102750.47;5068820;28;2591;-66
2021/09/21 08:46:31;;;;;;;;;;;;;;;18.10;57.90;102753.81;5073844;28;1890;-65
2021/09/21 08:48:56;;;;;;;;;;;;;;;18.11;58.03;102756.41;5074350;28;1409;-64
2021/09/21 08:51:21;;;;;;;;;;;;;;;18.13;57.84;102749.06;5052651;28;1581;-64
2021/09/21 08:53:46;;;;;;;;;;;;;;;18.16;57.87;102748.88;5073438;28;1434;-63
2021/09/21 08:56:11;;;;;;;;;;;;;;;18.15;57.46;102747.16;5064859;28;1169;-63
2021/09/21 08:58:36;;;;;;;;;;;;;;;18.19;57.81;102748.69;5061984;28;1748;-64
2021/09/21 09:01:01;;;;;;;;;;;;;;;18.18;57.49;102746.94;5064130;28;1569;-63
2021/09/21 09:03:27;;;;;;;;;;;;;;;18.16;58.05;102754.28;5068528;28;1958;-64
2021/09/21 09:05:52;;;;;;;;;;;;;;;18.20;57.52;102750.41;5063747;28;1209;-64
2021/09/21 09:08:17;;;;;;;;;;;;;;;18.19;57.44;102742.41;5041020;28;1965;-65
2021/09/21 09:10:42;;;;;;;;;;;;;;;18.21;57.46;102738.66;5060338;28;1440;-65
2021/09/21 09:13:09;;;;;;;;;;;;;;;18.24;58.04;102735.75;5048399;28;1189;-66
2021/09/21 09:15:34;;;;;;;;;;;;;;;18.26;57.93;102736.53;5060526;28;1346;-64
2021/09/21 09:17:59;;;;;;;;;;;;;;;18.26;57.37;102739.22;5073626;28;811;-66
2021/09/21 09:20:24;;;;;;;;;;;;;;;18.27;57.73;102734.69;5069401;28;1604;-67
2021/09/21 09:22:49;;;;;;;;;;;;;;;18.27;57.70;102730.13;5061473;28;1228;-66
2021/09/21 09:25:14;;;;;;;;;;;;;;;18.29;57.34;102741.69;5067531;28;1370;-67
2021/09/21 09:27:40;;;;;;;;;;;;;;;18.28;57.95;102737.25;5064012;28;1898;-64
2021/09/21 09:30:05;;;;;;;;;;;;;;;18.28;57.74;102739.09;5056274;28;1419;-65
2021/09/21 09:32:30;;;;;;;;;;;;;;;18.25;57.58;102740.19;5060036;28;2006;-66
2021/09/21 09:34:55;;;;;;;;;;;;;;;18.23;58.17;102750.22;5064388;28;1725;-65
2021/09/21 09:37:20;;;;;;;;;;;;;;;18.25;57.72;102748.28;5055992;28;1666;-66
2021/09/21 09:39:45;;;;;;;;;;;;;;;18.25;57.50;102753.69;5073697;28;890;-65
2021/09/21 09:42:12;;;;;;;;;;;;;;;18.23;57.59;102747.50;5073558;28;1878;-65
2021/09/21 09:44:37;;;;;;;;;;;;;;;18.22;57.52;102750.31;5067781;28;1743;-63
2021/09/21 09:47:04;;;;;;;;;;;;;;;18.24;57.92;102748.38;5052561;28;1914;-64
2021/09/21 09:49:29;;;;;;;;;;;;;;;18.23;57.60;102749.34;5049455;28;1485;-64
2021/09/21 09:51:54;;;;;;;;;;;;;;;18.24;57.15;102746.56;5060919;28;1715;-63
2021/09/21 09:54:19;;;;;;;;;;;;;;;18.24;57.92;102746.56;5065611;28;1770;-64
2021/09/21 09:56:44;;;;;;;;;;;;;;;18.27;57.50;102743.63;5073727;28;1451;-62
2021/09/21 09:59:09;;;;;;;;;;;;;;;18.26;57.56;102754.53;5071173;28;1590;-66
2021/09/21 10:01:34;;;;;;;;;;;;;;;18.20;57.87;102753.13;5070525;28;1625;-67
2021/09/21 10:04:01;;;;;;;;;;;;;;;18.17;57.50;102752.44;5075581;28;1461;-67
2021/09/21 10:06:26;;;;;;;;;;;;;;;18.14;57.17;102761.59;5073325;28;1962;-67
2021/09/21 10:08:52;;;;;;;;;;;;;;;18.13;56.67;102749.06;5075753;28;1405;-68
2021/09/21 10:11:17;;;;;;;;;;;;;;;18.11;56.95;102744.75;5075782;28;1522;-68
2021/09/21 10:13:43;;;;;;;;;;;;;;;18.12;56.63;102741.09;5076319;28;1626;-68
2021/09/21 10:16:08;;;;;;;;;;;;;;;18.13;56.58;102740.97;5077339;28;1786;-68
2021/09/21 10:18:33;;;;;;;;;;;;;;;18.12;56.10;102741.94;5068912;28;1724;-68
2021/09/21 10:20:58;;;;;;;;;;;;;;;18.12;56.67;102741.94;5069481;28;2096;-67
2021/09/21 10:23:23;;;;;;;;;;;;;;;18.10;56.65;102757.38;5076916;28;834;-67
2021/09/21 10:25:48;;;;;;;;;;;;;;;18.11;56.75;102747.44;5076419;28;1001;-67
2021/09/21 10:28:13;;;;;;;;;;;;;;;18.09;56.28;102750.28;5076807;28;1959;-67
2021/09/21 10:30:38;;;;;;;;;;;;;;;18.09;56.63;102742.19;5076374;28;1898;-67
2021/09/21 10:33:03;;;;;;;;;;;;;;;18.08;56.47;102745.84;5076456;28;1056;-67
2021/09/21 10:35:29;;;;;;;;;;;;;;;18.08;55.92;102745.84;5076862;28;1005;-67
2021/09/21 10:37:54;;;;;;;;;;;;;;;18.14;56.13;102761.59;5068026;28;1636;-63
2021/09/21 10:40:19;;;;;;;;;;;;;;;18.15;56.12;102757.94;5066063;28;1590;-69
2021/09/21 10:42:44;;;;;;;;;;;;;;;18.16;56.77;102748.88;5070147;28;1513;-68
2021/09/21 10:45:09;;;;;;;;;;;;;;;18.19;56.54;102748.69;5050419;28;1516;-64
2021/09/21 10:47:34;;;;;;;;;;;;;;;18.17;56.76;102747.06;5070534;28;1897;-64
2021/09/21 10:49:59;;;;;;;;;;;;;;;18.19;55.73;102745.97;5051886;28;1608;-69
2021/09/21 10:52:24;;;;;;;;;;;;;;;18.22;56.58;102748.47;5072663;28;1466;-66
2021/09/21 10:54:49;;;;;;;;;;;;;;;18.23;57.19;102749.34;5071133;28;1924;-66
2021/09/21 10:57:15;;;;;;;;;;;;;;;18.26;56.54;102747.31;5066691;28;1896;-68
2021/09/21 10:59:40;;;;;;;;;;;;;;;18.30;56.21;102756.91;5049585;28;2384;-65
2021/09/21 11:02:05;;;;;;;;;;;;;;;18.30;56.49;102754.22;5073852;28;1656;-68
2021/09/21 11:04:30;;;;;;;;;;;;;;;18.34;56.41;102744.09;5072181;28;1731;-68
2021/09/21 11:06:55;;;;;;;;;;;;;;;18.37;55.89;102747.44;5074005;28;1975;-65
2021/09/21 11:09:20;;;;;;;;;;;;;;;18.38;56.88;102741.06;5074482;28;1425;-64
2021/09/21 11:11:45;;;;;;;;;;;;;;;18.45;56.18;102759.56;5074795;28;1473;-66
2021/09/21 11:14:10;;;;;;;;;;;;;;;18.49;56.23;102748.44;5071500;28;1269;-67
2021/09/21 11:16:36;;;;;;;;;;;;;;;18.49;56.21;102755.66;5073205;28;1364;-68
2021/09/21 11:19:05;;;;;;;;;;;;;;;18.48;56.08;102741.31;5049783;28;1421;-70
2021/09/21 11:21:30;;;;;;;;;;;;;;;18.51;56.16;102746.50;5073861;28;1595;-65
2021/09/21 11:23:55;;;;;;;;;;;;;;;18.53;56.08;102752.66;5072658;28;1938;-66
2021/09/21 11:26:21;;;;;;;;;;;;;;;18.56;56.92;102743.50;5072851;28;1653;-74
2021/09/21 11:28:46;;;;;;;;;;;;;;;18.59;56.31;102746.88;5068919;28;1957;-64
2021/09/21 11:31:11;;;;;;;;;;;;;;;18.63;56.32;102742.16;5074465;28;1735;-63
2021/09/21 11:33:36;;;;;;;;;;;;;;;18.63;56.17;102747.56;5074511;28;1675;-64
2021/09/21 11:36:01;;;;;;;;;;;;;;;18.64;56.32;102743.84;5074289;28;2021;-64
2021/09/21 11:38:26;;;;;;;;;;;;;;;18.64;55.94;102743.84;5073205;28;1778;-65
2021/09/21 11:40:52;;;;;;;;;;;;;;;18.63;56.52;102737.59;5074009;28;2535;-64
2021/09/21 11:43:17;;;;;;;;;;;;;;;18.65;55.73;102734.78;5074072;28;1673;-70
2021/09/21 11:45:42;;;;;;;;;;;;;;;18.70;55.68;102740.75;5073558;28;1634;-68
2021/09/21 11:48:07;;;;;;;;;;;;;;;18.70;56.08;102738.91;5053915;28;1953;-68
2021/09/21 11:50:32;;;;;;;;;;;;;;;18.59;55.39;102743.31;5070278;28;1754;-68
2021/09/21 11:52:57;;;;;;;;;;;;;;;18.61;54.37;102744.94;5074149;28;1255;-64
2021/09/21 11:55:22;;;;;;;;;;;;;;;18.65;55.82;102745.59;5074063;28;1524;-64
2021/09/21 11:57:47;;;;;;;;;;;;;;;18.65;55.78;102729.38;5072178;28;1852;-65
2021/09/21 12:00:12;;;;;;;;;;;;;;;18.70;55.94;102729.94;5065913;28;1437;-67
2021/09/21 12:02:37;;;;;;;;;;;;;;;18.69;55.86;102734.47;5067188;28;1441;-66
2021/09/21 12:05:03;;;;;;;;;;;;;;;18.75;56.02;102733.19;5071859;28;1394;-68
2021/09/21 12:07:28;;;;;;;;;;;;;;;18.78;55.82;102730.28;5072615;28;1918;-69
2021/09/21 12:09:53;;;;;;;;;;;;;;;18.84;55.82;102732.53;5071497;28;1594;-69
2021/09/21 12:12:24;;;;;;;;;;;;;;;18.85;55.21;102731.56;5073380;28;1403;-66
2021/09/21 12:14:49;;;;;;;;;;;;;;;18.87;55.55;102729.63;5059682;28;1407;-68
2021/09/21 12:17:14;;;;;;;;;;;;;;;18.94;55.18;102730.94;5071580;28;1403;-67
2021/09/21 12:19:39;;;;;;;;;;;;;;;18.96;55.47;102739.81;5068460;28;1859;-69
2021/09/21 12:22:04;;;;;;;;;;;;;;;19.02;55.09;102741.19;5041043;28;1592;-66
2021/09/21 12:24:30;;;;;;;;;;;;;;;19.06;55.00;102740.88;5065814;28;1404;-67
2021/09/21 12:26:55;;;;;;;;;;;;;;;19.08;55.13;102736.22;5074560;28;1897;-66
2021/09/21 12:29:20;;;;;;;;;;;;;;;19.11;55.33;102731.56;5068300;28;1535;-63
2021/09/21 12:31:45;;;;;;;;;;;;;;;19.16;55.47;102737.53;5070490;28;1747;-68
2021/09/21 12:34:11;;;;;;;;;;;;;;;19.17;54.72;102732.00;5051306;28;1438;-66
2021/09/21 12:36:41;;;;;;;;;;;;;;;19.17;55.15;102744.66;5050956;28;1461;-63
2021/09/21 12:39:07;;;;;;;;;;;;;;;19.13;54.71;102735.03;5069798;28;1458;-63
2021/09/21 12:41:32;;;;;;;;;;;;;;;19.17;54.58;102725.75;5071988;28;1481;-62
2021/09/21 12:43:58;;;;;;;;;;;;;;;19.23;55.28;102725.28;5072467;28;1349;-63
2021/09/21 12:46:23;;;;;;;;;;;;;;;19.20;54.84;102715.56;5069407;28;1444;-66
2021/09/21 12:48:48;;;;;;;;;;;;;;;19.24;55.43;102708.09;5063660;28;1890;-66
2021/09/21 12:51:13;;;;;;;;;;;;;;;19.25;54.11;102713.41;5070951;28;1505;-63
2021/09/21 12:53:38;;;;;;;;;;;;;;;19.36;54.58;102712.59;5067908;28;1537;-66
2021/09/21 12:56:03;;;;;;;;;;;;;;;19.34;55.16;102707.34;5062127;28;1407;-66
2021/09/21 12:58:33;;;;;;;;;;;;;;;19.38;54.44;102705.25;5062667;28;1528;-65
2021/09/21 13:00:58;;;;;;;;;;;;;;;19.38;54.59;102703.41;5063189;28;1469;-66
2021/09/21 13:03:23;;;;;;;;;;;;;;;19.41;53.83;102702.34;5062861;28;1311;-66
2021/09/21 13:05:49;;;;;;;;;;;;;;;19.41;54.13;102691.50;5041591;28;1672;-65
2021/09/21 13:08:14;;;;;;;;;;;;;;;19.40;53.61;102696.06;5064954;28;1926;-69
2021/09/21 13:10:39;;;;;;;;;;;;;;;19.45;53.58;102702.97;5049315;28;1612;-67
2021/09/21 13:13:04;;;;;;;;;;;;;;;19.48;53.25;102710.88;5070309;28;1312;-67
2021/09/21 13:15:31;;;;;;;;;;;;;;;19.55;54.97;102698.66;5074134;28;884;-70
2021/09/21 13:17:56;;;;;;;;;;;;;;;19.59;54.87;102698.31;5046222;28;2030;-68
2021/09/21 13:20:21;;;;;;;;;;;;;;;19.65;54.03;102692.47;5066382;28;1530;-65
2021/09/21 13:22:46;;;;;;;;;;;;;;;19.68;54.68;102688.69;5064603;28;1629;-67
2021/09/21 13:25:11;;;;;;;;;;;;;;;19.70;54.08;102687.59;5064873;28;1332;-65
2021/09/21 13:27:36;;;;;;;;;;;;;;;19.73;53.92;102692.75;5067040;28;1901;-65
2021/09/21 13:30:03;;;;;;;;;;;;;;;19.73;53.61;102686.47;5066299;28;1346;-65
2021/09/21 13:32:28;;;;;;;;;;;;;;;19.80;54.03;102692.28;5068051;28;1351;-67
2021/09/21 13:34:53;;;;;;;;;;;;;;;19.85;54.84;102690.97;5057593;28;803;-72
2021/09/21 13:37:18;;;;;;;;;;;;;;;19.81;54.93;102691.31;5040110;28;1265;-67
2021/09/21 13:39:43;;;;;;;;;;;;;;;19.85;54.72;102687.41;5062603;28;1667;-65
2021/09/21 13:42:08;;;;;;;;;;;;;;;19.88;54.31;102690.75;5067752;28;1266;-65
2021/09/21 13:44:33;;;;;;;;;;;;;;;19.90;51.73;102677.09;5054494;28;1523;-69
2021/09/21 13:46:58;;;;;;;;;;;;;;;19.85;51.99;102668.47;5067771;28;1959;-68
2021/09/21 13:49:23;;;;;;;;;;;;;;;19.89;53.83;102673.50;5048443;28;1237;-65
2021/09/21 13:51:48;;;;;;;;;;;;;;;19.94;52.72;102673.19;5068516;28;1335;-65
2021/09/21 13:54:14;;;;;;;;;;;;;;;19.93;53.47;102677.72;5059319;28;1224;-62
2021/09/21 13:56:39;;;;;;;;;;;;;;;19.99;52.69;102681.81;5075990;28;1805;-63
2021/09/21 13:59:04;;;;;;;;;;;;;;;20.01;52.61;102671.75;5066030;28;1245;-64
2021/09/21 14:01:29;;;;;;;;;;;;;;;20.09;54.30;102682.84;5073432;28;1776;-67
2021/09/21 14:03:54;;;;;;;;;;;;;;;20.09;52.47;102674.72;5075662;28;1499;-69
2021/09/21 14:06:19;;;;;;;;;;;;;;;20.07;54.23;102669.41;5054654;28;1263;-66
2021/09/21 14:08:44;;;;;;;;;;;;;;;20.08;52.82;102667.56;5056585;28;1910;-68
2021/09/21 14:11:09;;;;;;;;;;;;;;;20.06;52.54;102672.28;5067505;28;1374;-66
2021/09/21 14:13:34;;;;;;;;;;;;;;;20.10;53.74;102676.44;5074767;28;1867;-70
2021/09/21 14:15:59;;;;;;;;;;;;;;;20.08;52.68;102681.09;5057073;28;1369;-66
2021/09/21 14:18:27;;;;;;;;;;;;;;;20.01;53.08;102677.16;5074966;28;1575;-65
2021/09/21 14:20:52;;;;;;;;;;;;;;;19.99;53.89;102681.81;5075934;28;1266;-74
2021/09/21 14:23:17;;;;;;;;;;;;;;;20.01;53.41;102682.56;5075973;28;1436;-67
2021/09/21 14:25:42;;;;;;;;;;;;;;;19.99;54.36;102674.56;5072390;28;1503;-65
2021/09/21 14:28:07;;;;;;;;;;;;;;;20.09;54.10;102672.00;5074840;28;1961;-68
2021/09/21 14:30:32;;;;;;;;;;;;;;;20.14;53.90;102672.53;5046116;28;1268;-70
2021/09/21 14:32:57;;;;;;;;;;;;;;;20.18;54.39;102682.16;5060360;28;1862;-65
2021/09/21 14:35:23;;;;;;;;;;;;;;;20.22;54.33;102678.25;5076319;28;1969;-67
2021/09/21 14:37:48;;;;;;;;;;;;;;;20.25;52.70;102683.38;5076929;28;888;-64
2021/09/21 14:40:13;;;;;;;;;;;;;;;20.17;52.97;102688.53;5058158;28;1266;-65
2021/09/21 14:42:38;;;;;;;;;;;;;;;20.16;53.48;102677.84;5076446;28;1791;-63
2021/09/21 14:45:03;;;;;;;;;;;;;;;20.19;53.79;102683.03;5076278;28;775;-68
2021/09/21 14:47:28;;;;;;;;;;;;;;;20.18;52.44;102690.28;5058424;28;1894;-66
2021/09/21 14:49:53;;;;;;;;;;;;;;;20.16;53.77;102692.22;5070049;28;1663;-66
2021/09/21 14:52:18;;;;;;;;;;;;;;;20.14;53.65;102688.78;5066810;28;1312;-65
2021/09/21 14:54:43;;;;;;;;;;;;;;;20.13;53.00;102684.34;5062303;28;1414;-69
2021/09/21 14:57:08;;;;;;;;;;;;;;;20.11;54.01;102681.75;5075341;28;1957;-65
2021/09/21 14:59:33;;;;;;;;;;;;;;;20.11;54.47;102694.41;5076588;28;997;-67
2021/09/21 15:01:58;;;;;;;;;;;;;;;20.12;55.10;102685.31;5076481;28;921;-66
2021/09/21 15:04:23;;;;;;;;;;;;;;;20.07;52.89;102684.78;5076481;28;1340;-68
2021/09/21 15:06:49;;;;;;;;;;;;;;;20.03;53.87;102688.75;5057631;28;1973;-65
2021/09/21 15:09:14;;;;;;;;;;;;;;;20.03;53.99;102689.59;5075615;28;1917;-67
2021/09/21 15:11:39;;;;;;;;;;;;;;;20.05;53.74;102682.22;5075903;28;834;-68
2021/09/21 15:14:04;;;;;;;;;;;;;;;20.09;54.26;102682.84;5074644;28;1608;-70
2021/09/21 15:16:29;;;;;;;;;;;;;;;20.05;54.28;102686.78;5055948;28;1691;-67
2021/09/21 15:18:54;;;;;;;;;;;;;;;20.00;54.61;102684.41;5055591;28;811;-68
2021/09/21 15:21:19;;;;;;;;;;;;;;;19.98;54.28;102688.22;5067199;28;2108;-69
2021/09/21 15:23:44;;;;;;;;;;;;;;;19.94;53.52;102690.28;5063302;28;1578;-68
2021/09/21 15:26:09;;;;;;;;;;;;;;;19.92;54.62;102688.66;5067066;28;1540;-69
2021/09/21 15:28:37;;;;;;;;;;;;;;;19.90;53.33;102687.91;5042056;28;1941;-69
2021/09/21 15:31:02;;;;;;;;;;;;;;;19.86;53.04;102678.31;5055217;28;803;-69
2021/09/21 15:33:27;;;;;;;;;;;;;;;19.89;53.62;102675.34;5073193;28;2070;-69
2021/09/21 15:35:52;;;;;;;;;;;;;;;19.90;54.35;102671.66;5075080;28;1878;-69
2021/09/21 15:38:17;;;;;;;;;;;;;;;19.98;53.75;102658.44;5043454;28;1580;-70
2021/09/21 15:40:44;;;;;;;;;;;;;;;20.04;54.37;102661.56;5057417;28;2059;-70
2021/09/21 15:43:09;;;;;;;;;;;;;;;20.05;55.03;102667.84;5057003;28;1974;-69
2021/09/21 15:45:34;;;;;;;;;;;;;;;20.07;54.51;102663.13;5056982;28;1437;-70
2021/09/21 15:47:59;;;;;;;;;;;;;;;20.09;54.21;102655.78;5075156;28;1960;-70
2021/09/21 15:50:24;;;;;;;;;;;;;;;20.11;55.09;102653.81;5066373;28;1675;-70
2021/09/21 15:52:49;;;;;;;;;;;;;;;20.10;54.68;102657.50;5056022;28;2216;-70
2021/09/21 15:55:14;;;;;;;;;;;;;;;20.11;54.84;102661.94;5059638;28;1910;-69
2021/09/21 15:57:40;;;;;;;;;;;;;;;20.09;55.01;102661.19;5072813;28;1105;-69
2021/09/21 16:00:05;;;;;;;;;;;;;;;20.15;54.41;102665.28;5059637;28;1240;-70
2021/09/21 16:02:30;;;;;;;;;;;;;;;20.11;54.72;102659.22;5067009;28;1351;-70
2021/09/21 16:04:55;;;;;;;;;;;;;;;20.07;54.00;102655.88;5052861;28;1608;-70
2021/09/21 16:07:20;;;;;;;;;;;;;;;20.08;55.04;102654.03;5045516;28;1973;-70
2021/09/21 16:09:45;;;;;;;;;;;;;;;20.09;55.20;102666.59;5064579;28;1522;-69
2021/09/21 16:12:10;;;;;;;;;;;;;;;20.04;54.69;102663.41;5054826;28;906;-69
2021/09/21 16:14:35;;;;;;;;;;;;;;;20.04;54.30;102668.81;5054282;28;803;-70
2021/09/21 16:17:03;;;;;;;;;;;;;;;19.99;54.82;102679.13;5055057;28;1204;-70
2021/09/21 16:19:28;;;;;;;;;;;;;;;19.93;54.61;102676.88;5067671;28;2606;-70
2021/09/21 16:21:54;;;;;;;;;;;;;;;19.97;55.26;102678.38;5072646;28;1669;-69
2021/09/21 16:24:19;;;;;;;;;;;;;;;19.96;54.78;102682.91;5073132;28;2048;-69
2021/09/21 16:26:47;;;;;;;;;;;;;;;19.96;55.39;102684.75;5072068;28;1961;-70
2021/09/21 16:29:12;;;;;;;;;;;;;;;19.91;55.45;102684.22;5071979;28;1723;-70
2021/09/21 16:31:37;;;;;;;;;;;;;;;19.88;56.04;102677.22;5072213;28;1716;-70
2021/09/21 16:34:02;;;;;;;;;;;;;;;19.87;55.09;102671.94;5067029;28;2291;-70
2021/09/21 16:36:27;;;;;;;;;;;;;;;19.89;55.62;102670.81;5074007;28;1812;-70
2021/09/21 16:38:52;;;;;;;;;;;;;;;19.89;56.11;102681.63;5073227;28;1603;-70
2021/09/21 16:41:17;;;;;;;;;;;;;;;19.88;55.57;102679.94;5072717;28;2475;-70
2021/09/21 16:43:43;;;;;;;;;;;;;;;19.83;56.37;102681.25;5055503;28;1706;-71
2021/09/21 16:46:08;;;;;;;;;;;;;;;19.87;56.20;102683.63;5073773;28;1755;-70
2021/09/21 16:48:33;;;;;;;;;;;;;;;19.84;56.08;102682.97;5073543;28;1949;-70
2021/09/21 16:50:59;;;;;;;;;;;;;;;19.85;56.86;102682.00;5054512;28;1426;-71
2021/09/21 16:53:24;;;;;;;;;;;;;;;19.84;56.48;102673.03;5072905;28;1424;-71
2021/09/21 16:55:49;;;;;;;;;;;;;;;19.85;56.33;102668.47;5053992;28;1428;-71
2021/09/21 16:58:14;;;;;;;;;;;;;;;19.80;56.99;102668.81;5072573;28;1285;-70
2021/09/21 17:00:40;;;;;;;;;;;;;;;19.81;57.30;102664.25;5072272;28;1522;-70
2021/09/21 17:03:10;;;;;;;;;;;;;;;19.81;56.95;102665.13;5069143;28;1424;-70
2021/09/21 17:05:35;;;;;;;;;;;;;;;19.76;56.68;102665.47;5053638;28;1358;-70
2021/09/21 17:08:00;;;;;;;;;;;;;;;19.77;56.71;102675.31;5069634;28;1979;-70
2021/09/21 17:10:25;;;;;;;;;;;;;;;19.76;57.29;102678.13;5071954;28;1325;-70
2021/09/21 17:12:51;;;;;;;;;;;;;;;19.72;57.04;102680.19;5071632;28;1698;-70
2021/09/21 17:15:16;;;;;;;;;;;;;;;19.71;56.69;102685.72;5072309;28;1637;-71
2021/09/21 17:17:41;;;;;;;;;;;;;;;19.67;57.09;102686.94;5072234;28;1815;-69
2021/09/21 17:20:07;;;;;;;;;;;;;;;19.68;57.47;102694.09;5072366;28;1634;-67
2021/09/21 17:22:32;;;;;;;;;;;;;;;19.63;57.50;102697.13;5072092;28;1376;-69
2021/09/21 17:24:57;;;;;;;;;;;;;;;19.59;57.27;102698.31;5073709;28;1729;-69
2021/09/21 17:27:22;;;;;;;;;;;;;;;19.59;58.21;102711.84;5073059;28;1947;-67
2021/09/21 17:29:47;;;;;;;;;;;;;;;19.60;57.91;102715.41;5073453;28;1454;-71
2021/09/21 17:32:12;;;;;;;;;;;;;;;19.61;58.16;102720.72;5072867;28;1617;-70
2021/09/21 17:34:37;;;;;;;;;;;;;;;19.63;57.31;102729.56;5072916;28;1834;-68
2021/09/21 17:37:03;;;;;;;;;;;;;;;19.62;57.57;102730.56;5073524;28;1514;-67
2021/09/21 17:39:28;;;;;;;;;;;;;;;19.62;58.05;102724.28;5073106;28;1083;-62
2021/09/21 17:41:54;;;;;;;;;;;;;;;19.60;57.71;102728.94;5071085;28;1915;-62
2021/09/21 17:44:19;;;;;;;;;;;;;;;19.59;58.36;102729.91;5073097;28;1435;-64